createdAt,value
2018-06-22T00:01:12.838Z,26.70
2018-06-22T00:03:41.034Z,26.40
2018-06-22T00:06:09.244Z,26.70
2018-06-22T00:08:37.439Z,26.80
2018-06-22T00:11:05.761Z,26.60
2018-06-22T00:13:33.929Z,27.40
2018-06-22T00:16:02.192Z,26.90
2018-06-22T00:18:30.459Z,26.90
2018-06-22T00:20:58.799Z,27.10
2018-06-22T00:23:26.998Z,27.20
2018-06-22T00:25:55.208Z,27.00
2018-06-22T00:28:23.802Z,27.30
2018-06-22T00:30:51.996Z,27.30
2018-06-22T00:33:20.220Z,27.50
2018-06-22T00:35:48.400Z,27.30
2018-06-22T00:38:16.570Z,27.60
2018-06-22T00:40:44.817Z,27.50
2018-06-22T00:43:12.978Z,27.70
2018-06-22T00:45:41.259Z,27.80
2018-06-22T00:48:09.482Z,27.80
2018-06-22T00:50:37.694Z,27.80
2018-06-22T00:53:16.023Z,28.00
2018-06-22T00:55:44.238Z,28.10
2018-06-22T00:58:12.420Z,28.00
2018-06-22T01:00:40.594Z,28.10
2018-06-22T01:03:08.761Z,28.30
2018-06-22T01:05:36.986Z,28.50
2018-06-22T01:08:05.305Z,28.30
2018-06-22T01:10:33.490Z,28.10
2018-06-22T01:13:01.675Z,28.40
2018-06-22T01:15:29.861Z,28.70
2018-06-22T01:17:58.046Z,28.60
2018-06-22T01:20:27.000Z,28.90
2018-06-22T01:22:55.215Z,28.90
2018-06-22T01:25:23.478Z,28.80
2018-06-22T01:27:51.684Z,28.70
2018-06-22T01:30:19.879Z,28.80
2018-06-22T01:32:48.074Z,28.90
2018-06-22T01:35:16.264Z,28.90
2018-06-22T01:37:44.483Z,28.70
2018-06-22T01:40:12.658Z,29.30
2018-06-22T01:42:40.857Z,29.30
2018-06-22T01:45:09.038Z,29.40
2018-06-22T01:47:39.171Z,29.30
2018-06-22T01:50:07.507Z,29.20
2018-06-22T01:52:35.697Z,29.20
2018-06-22T01:55:03.894Z,29.60
2018-06-22T01:57:32.134Z,29.40
2018-06-22T02:00:00.360Z,29.50
2018-06-22T02:02:28.607Z,29.80
2018-06-22T02:04:56.784Z,29.80
2018-06-22T02:07:25.524Z,29.90
2018-06-22T02:09:53.787Z,30.00
2018-06-22T02:12:22.024Z,30.20
2018-06-22T02:14:50.227Z,30.00
2018-06-22T02:17:18.463Z,30.30
2018-06-22T02:19:46.659Z,30.60
2018-06-22T02:22:14.924Z,30.60
2018-06-22T02:24:43.130Z,30.80
2018-06-22T02:27:11.386Z,30.70
2018-06-22T02:32:07.639Z,30.70
2018-06-22T02:34:35.838Z,30.70
2018-06-22T02:37:04.071Z,30.90
2018-06-22T02:39:32.339Z,31.10
2018-06-22T02:42:00.560Z,31.20
2018-06-22T02:44:28.818Z,31.00
2018-06-22T02:46:57.023Z,31.20
2018-06-22T02:49:25.212Z,31.30
2018-06-22T02:51:53.470Z,31.50
2018-06-22T02:54:21.689Z,31.40
2018-06-22T02:56:50.593Z,31.40
2018-06-22T02:59:18.803Z,31.70
2018-06-22T03:01:47.024Z,32.00
2018-06-22T03:04:15.256Z,31.60
2018-06-22T03:06:43.679Z,31.80
2018-06-22T03:09:11.878Z,32.40
2018-06-22T03:11:40.093Z,32.60
2018-06-22T03:16:42.955Z,32.50
2018-06-22T03:19:11.234Z,32.80
2018-06-22T03:21:39.423Z,32.90
2018-06-22T03:24:08.526Z,33.00
2018-06-22T03:26:36.757Z,33.20
2018-06-22T03:29:04.996Z,33.50
2018-06-22T03:31:33.229Z,33.50
2018-06-22T03:34:04.866Z,33.50
2018-06-22T03:36:33.348Z,33.40
2018-06-22T03:39:01.562Z,33.50
2018-06-22T03:41:29.864Z,33.90
2018-06-22T03:43:58.094Z,34.60
2018-06-22T03:46:26.293Z,34.30
2018-06-22T03:48:54.567Z,34.20
2018-06-22T03:51:22.832Z,34.00
2018-06-22T03:53:51.033Z,34.60
2018-06-22T03:56:19.262Z,34.30
2018-06-22T03:58:54.023Z,34.30
2018-06-22T04:01:22.244Z,34.60
2018-06-22T04:03:56.754Z,34.20
2018-06-22T04:06:24.960Z,34.40
2018-06-22T04:08:53.284Z,34.80
2018-06-22T04:11:21.447Z,34.20
2018-06-22T04:13:49.650Z,34.10
2018-06-22T04:16:17.852Z,34.50
2018-06-22T04:18:49.058Z,34.50
2018-06-22T04:21:17.283Z,34.70
2018-06-22T04:23:45.506Z,35.40
2018-06-22T04:26:13.687Z,34.80
2018-06-22T04:28:41.905Z,34.70
2018-06-22T04:31:10.080Z,34.80
2018-06-22T04:33:38.288Z,34.70
2018-06-22T04:36:06.501Z,35.00
2018-06-22T04:38:34.702Z,35.20
2018-06-22T04:41:03.801Z,35.10
2018-06-22T04:43:31.998Z,35.50
2018-06-22T04:46:00.202Z,35.20
2018-06-22T04:48:29.357Z,35.40
2018-06-22T04:50:57.630Z,35.50
2018-06-22T04:53:26.107Z,35.60
2018-06-22T04:55:54.281Z,35.60
2018-06-22T04:58:22.467Z,35.50
2018-06-22T05:00:51.142Z,35.20
2018-06-22T05:03:19.352Z,35.70
2018-06-22T05:05:47.535Z,35.60
2018-06-22T05:08:16.482Z,35.10
2018-06-22T05:10:44.816Z,34.30
2018-06-22T05:13:13.191Z,34.10
2018-06-22T05:15:41.783Z,33.70
2018-06-22T05:18:10.012Z,33.40
2018-06-22T05:20:39.606Z,33.10
2018-06-22T05:23:09.563Z,32.30
2018-06-22T05:25:37.858Z,32.50
2018-06-22T05:28:06.101Z,31.60
2018-06-22T05:30:34.502Z,30.80
2018-06-22T05:33:02.759Z,29.80
2018-06-22T05:35:30.942Z,29.50
2018-06-22T05:37:59.187Z,29.30
2018-06-22T05:40:27.402Z,29.60
2018-06-22T05:42:55.581Z,29.20
2018-06-22T05:45:24.374Z,29.00
2018-06-22T05:47:52.582Z,29.00
2018-06-22T05:50:20.794Z,28.90
2018-06-22T05:52:49.021Z,28.60
2018-06-22T05:55:17.256Z,28.70
2018-06-22T05:57:45.442Z,27.80
2018-06-22T06:00:13.644Z,27.80
2018-06-22T06:02:41.835Z,27.60
2018-06-22T06:05:11.339Z,27.30
2018-06-22T06:07:39.611Z,27.40
2018-06-22T06:10:07.911Z,26.90
2018-06-22T06:12:36.443Z,26.80
2018-06-22T06:15:04.530Z,26.90
2018-06-22T06:17:32.794Z,26.70
2018-06-22T06:20:00.995Z,26.50
2018-06-22T06:22:30.247Z,26.20
2018-06-22T06:24:58.418Z,25.80
2018-06-22T06:27:26.613Z,25.40
2018-06-22T06:29:54.826Z,25.70
2018-06-22T06:32:23.033Z,25.90
2018-06-22T06:34:51.230Z,25.10
2018-06-22T06:37:19.455Z,25.00
2018-06-22T06:39:47.673Z,25.50
2018-06-22T06:42:15.856Z,24.40
2018-06-22T06:44:44.172Z,24.60
2018-06-22T06:47:12.398Z,24.30
2018-06-22T06:49:40.654Z,24.50
2018-06-22T06:52:08.811Z,24.70
2018-06-22T06:54:37.033Z,23.70
2018-06-22T06:57:05.345Z,23.80
2018-06-22T06:59:33.606Z,23.20
2018-06-22T07:02:01.898Z,23.70
2018-06-22T07:04:30.126Z,22.90
2018-06-22T07:06:58.320Z,22.20
2018-06-22T07:09:26.819Z,22.40
2018-06-22T07:11:55.077Z,22.90
2018-06-22T07:14:23.323Z,22.70
2018-06-22T07:16:51.511Z,23.00
2018-06-22T07:19:19.702Z,22.60
2018-06-22T07:21:47.967Z,22.60
2018-06-22T07:24:16.259Z,21.70
2018-06-22T07:26:44.568Z,21.90
2018-06-22T07:29:12.773Z,21.50
2018-06-22T07:31:41.010Z,21.80
2018-06-22T07:34:09.275Z,22.60
2018-06-22T07:36:37.531Z,22.30
2018-06-22T07:39:08.618Z,23.00
2018-06-22T07:41:36.922Z,23.00
2018-06-22T07:44:05.130Z,22.40
2018-06-22T07:46:33.414Z,22.70
2018-06-22T07:49:01.615Z,22.00
2018-06-22T07:51:29.824Z,22.40
2018-06-22T07:53:58.049Z,22.30
2018-06-22T07:56:26.235Z,21.90
2018-06-22T07:58:54.452Z,21.80
2018-06-22T08:01:22.663Z,21.60
2018-06-22T08:03:50.941Z,20.40
2018-06-22T08:06:19.225Z,19.80
2018-06-22T08:08:47.394Z,19.90
2018-06-22T08:11:15.596Z,19.60
2018-06-22T08:13:43.807Z,19.30
2018-06-22T08:16:12.031Z,20.20
2018-06-22T08:18:40.255Z,19.20
2018-06-22T08:21:08.438Z,19.90
2018-06-22T08:23:36.700Z,19.60
2018-06-22T08:26:04.841Z,19.10
2018-06-22T08:28:33.055Z,19.00
2018-06-22T08:31:01.266Z,19.20
2018-06-22T08:33:29.466Z,18.70
2018-06-22T08:35:57.785Z,18.50
2018-06-22T08:38:26.419Z,18.70
2018-06-22T08:40:54.640Z,18.70
2018-06-22T08:43:22.885Z,19.00
2018-06-22T08:45:51.136Z,19.20
2018-06-22T08:48:19.401Z,18.80
2018-06-22T08:50:47.687Z,18.60
2018-06-22T08:53:15.897Z,18.60
2018-06-22T08:55:44.128Z,17.70
2018-06-22T08:58:12.422Z,17.60
2018-06-22T09:00:40.697Z,18.10
2018-06-22T09:03:08.985Z,18.20
2018-06-22T09:05:37.180Z,17.90
2018-06-22T09:08:05.455Z,18.80
2018-06-22T09:10:33.622Z,19.40
2018-06-22T09:13:01.810Z,19.80
2018-06-22T09:15:30.094Z,20.40
2018-06-22T09:17:58.286Z,19.00
2018-06-22T09:20:27.462Z,19.00
2018-06-22T09:22:55.661Z,18.70
2018-06-22T09:25:23.841Z,18.20
2018-06-22T09:27:52.053Z,18.60
2018-06-22T09:30:20.346Z,18.00
2018-06-22T09:32:48.561Z,17.90
2018-06-22T09:35:16.747Z,17.70
2018-06-22T09:37:44.962Z,17.50
2018-06-22T09:40:13.117Z,17.40
2018-06-22T09:42:41.331Z,18.10
2018-06-22T09:45:09.644Z,17.70
2018-06-22T09:47:37.814Z,17.60
2018-06-22T09:50:06.044Z,17.90
2018-06-22T09:52:34.214Z,17.40
2018-06-22T09:55:02.440Z,17.70
2018-06-22T09:57:30.645Z,17.80
2018-06-22T09:59:58.978Z,17.10
2018-06-22T10:02:28.074Z,18.00
2018-06-22T10:04:56.276Z,18.40
2018-06-22T10:07:24.489Z,18.90
2018-06-22T10:09:52.651Z,18.60
2018-06-22T10:12:20.929Z,18.30
2018-06-22T10:14:49.124Z,18.10
2018-06-22T10:17:17.342Z,18.50
2018-06-22T10:19:45.861Z,18.40
2018-06-22T10:22:14.034Z,18.60
2018-06-22T10:24:42.226Z,18.30
2018-06-22T10:27:10.415Z,18.50
2018-06-22T10:32:06.592Z,19.00
2018-06-22T10:34:34.808Z,19.60
2018-06-22T10:37:03.013Z,18.80
2018-06-22T10:39:31.221Z,18.90
2018-06-22T10:41:59.423Z,18.80
2018-06-22T10:44:27.630Z,18.90
2018-06-22T10:46:55.856Z,18.40
2018-06-22T10:49:24.070Z,19.00
2018-06-22T10:51:52.332Z,17.80
2018-06-22T10:54:20.526Z,18.20
2018-06-22T10:56:48.721Z,18.30
2018-06-22T10:59:17.165Z,18.40
2018-06-22T11:01:45.356Z,19.20
2018-06-22T11:04:13.549Z,19.30
2018-06-22T11:06:41.740Z,19.70
2018-06-22T11:09:11.514Z,19.90
2018-06-22T11:11:39.765Z,20.20
2018-06-22T11:14:08.049Z,20.30
2018-06-22T11:16:36.585Z,20.80
2018-06-22T11:19:05.271Z,20.90
2018-06-22T11:21:33.806Z,21.40
2018-06-22T11:26:30.035Z,21.50
2018-06-22T11:28:58.213Z,22.20
2018-06-22T11:31:26.522Z,21.90
2018-06-22T11:33:55.525Z,21.90
2018-06-22T11:36:23.807Z,21.60
2018-06-22T11:38:52.029Z,22.00
2018-06-22T11:41:20.564Z,22.70
2018-06-22T11:46:16.854Z,22.50
2018-06-22T11:48:45.080Z,22.60
2018-06-22T11:51:13.362Z,22.50
2018-06-22T11:53:41.511Z,22.50
2018-06-22T11:56:09.771Z,22.40
2018-06-22T11:58:37.963Z,22.20
2018-06-22T12:01:06.208Z,22.60
2018-06-22T12:06:02.494Z,22.80
2018-06-22T12:08:30.739Z,22.50
2018-06-22T12:10:58.930Z,22.90
2018-06-22T12:13:27.222Z,22.90
2018-06-22T12:15:55.574Z,23.30
2018-06-22T12:18:23.839Z,23.10
2018-06-22T12:20:52.088Z,24.10
2018-06-22T12:25:48.254Z,23.20
2018-06-22T12:28:16.477Z,23.30
2018-06-22T12:30:44.815Z,23.50
2018-06-22T12:33:13.052Z,23.60
2018-06-22T12:35:41.307Z,23.10
2018-06-22T12:38:09.582Z,23.50
2018-06-22T12:40:37.809Z,23.70
2018-06-22T12:43:06.061Z,23.70
2018-06-22T12:45:34.334Z,24.00
2018-06-22T12:48:02.553Z,24.00
2018-06-22T12:50:30.932Z,23.40
2018-06-22T12:52:59.102Z,23.40
2018-06-22T12:55:27.328Z,24.00
2018-06-22T12:57:55.591Z,23.80
2018-06-22T13:00:23.943Z,24.20
2018-06-22T13:02:52.136Z,24.30
2018-06-22T13:05:20.354Z,24.40
2018-06-22T13:07:48.571Z,23.50
2018-06-22T13:10:16.808Z,23.40
2018-06-22T13:12:45.019Z,23.70
2018-06-22T13:15:13.297Z,23.60
2018-06-22T13:17:41.532Z,23.20
2018-06-22T13:20:09.764Z,23.50
2018-06-22T13:22:38.042Z,22.80
2018-06-22T13:25:06.314Z,22.00
2018-06-22T13:27:34.558Z,22.30
2018-06-22T13:30:02.894Z,22.60
2018-06-22T13:32:31.151Z,22.40
2018-06-22T13:34:59.427Z,22.90
2018-06-22T13:37:27.741Z,23.00
2018-06-22T13:39:56.052Z,23.00
2018-06-22T13:42:24.263Z,23.50
2018-06-22T13:44:52.509Z,24.50
2018-06-22T13:47:20.729Z,23.50
2018-06-22T13:49:48.987Z,24.20
2018-06-22T13:52:17.231Z,23.40
2018-06-22T13:54:45.460Z,23.60
2018-06-22T13:57:13.760Z,24.40
2018-06-22T13:59:41.964Z,25.10
2018-06-22T14:02:10.283Z,25.20
2018-06-22T14:04:43.866Z,25.30
2018-06-22T14:07:12.092Z,25.50
2018-06-22T14:09:40.343Z,25.70
2018-06-22T14:12:08.557Z,25.20
2018-06-22T14:14:36.783Z,25.00
2018-06-22T14:17:05.114Z,25.40
2018-06-22T14:19:33.358Z,25.60
2018-06-22T14:22:01.646Z,24.70
2018-06-22T14:24:29.915Z,24.70
2018-06-22T14:26:58.125Z,24.50
2018-06-22T14:29:26.406Z,24.70
2018-06-22T14:31:54.796Z,24.70
2018-06-22T14:34:23.568Z,24.70
2018-06-22T14:36:51.844Z,25.10
2018-06-22T14:39:20.099Z,24.90
2018-06-22T14:41:48.304Z,24.90
2018-06-22T14:44:17.426Z,25.20
2018-06-22T14:46:45.706Z,25.40
2018-06-22T14:49:14.009Z,25.20
2018-06-22T14:51:42.254Z,25.40
2018-06-22T14:54:15.832Z,25.10
2018-06-22T14:56:49.466Z,24.20
2018-06-22T14:59:23.217Z,24.40
2018-06-22T15:01:56.898Z,25.20
2018-06-22T15:04:30.528Z,25.20
2018-06-22T15:07:04.315Z,25.40
2018-06-22T15:09:32.977Z,24.90
2018-06-22T15:12:01.218Z,24.90
2018-06-22T15:14:29.405Z,25.30
2018-06-22T15:16:59.688Z,26.00
2018-06-22T15:19:27.909Z,25.30
2018-06-22T15:21:56.191Z,25.10
2018-06-22T15:24:24.440Z,25.30
2018-06-22T15:26:52.622Z,25.40
2018-06-22T15:29:20.833Z,24.50
2018-06-22T15:31:49.025Z,25.30
2018-06-22T15:34:22.408Z,24.50
2018-06-22T15:36:56.087Z,24.10
2018-06-22T15:39:29.815Z,24.50
2018-06-22T15:42:03.499Z,24.30
2018-06-22T15:44:37.383Z,24.70
2018-06-22T15:47:10.974Z,24.40
2018-06-22T15:49:44.533Z,24.70
2018-06-22T15:52:18.261Z,24.90
2018-06-22T15:54:51.899Z,25.20
2018-06-22T15:57:20.106Z,25.20
2018-06-22T15:59:48.339Z,24.40
2018-06-22T16:02:21.933Z,24.40
2018-06-22T16:04:50.747Z,24.70
2018-06-22T16:07:18.953Z,25.30
2018-06-22T16:09:52.686Z,24.60
2018-06-22T16:12:26.293Z,24.60
2018-06-22T16:14:59.927Z,24.90
2018-06-22T16:17:33.614Z,25.20
2018-06-22T16:20:07.420Z,25.40
2018-06-22T16:23:40.380Z,25.60
2018-06-22T16:26:14.142Z,25.30
2018-06-22T16:28:42.342Z,25.80
2018-06-22T16:31:10.572Z,25.50
2018-06-22T16:33:43.014Z,26.00
2018-06-22T16:36:11.244Z,26.00
2018-06-22T16:38:39.550Z,25.30
2018-06-22T16:41:07.771Z,25.10
2018-06-22T16:43:36.005Z,24.80
2018-06-22T16:46:04.243Z,25.00
2018-06-22T16:48:32.501Z,24.70
2018-06-22T16:51:00.783Z,24.20
2018-06-22T16:53:29.011Z,24.70
2018-06-22T16:55:57.270Z,24.80
2018-06-22T16:58:30.855Z,24.90
2018-06-22T17:00:59.160Z,24.90
2018-06-22T17:03:27.416Z,25.10
2018-06-22T17:05:55.721Z,25.70
2018-06-22T17:08:29.418Z,25.40
2018-06-22T17:11:03.143Z,25.40
2018-06-22T17:13:36.826Z,25.50
2018-06-22T17:16:10.559Z,26.10
2018-06-22T17:18:44.266Z,25.30
2018-06-22T17:21:12.442Z,24.30
2018-06-22T17:23:40.736Z,24.10
2018-06-22T17:26:08.975Z,23.90
2018-06-22T17:28:37.463Z,23.70
2018-06-22T17:31:05.923Z,24.30
2018-06-22T17:33:34.147Z,24.20
2018-06-22T17:36:02.351Z,24.30
2018-06-22T17:38:30.628Z,24.80
2018-06-22T17:40:58.835Z,24.60
2018-06-22T17:43:27.134Z,24.90
2018-06-22T17:45:55.356Z,24.90
2018-06-22T17:48:23.632Z,25.10
2018-06-22T17:50:51.844Z,25.40
2018-06-22T17:53:20.066Z,25.10
2018-06-22T17:55:48.362Z,24.70
2018-06-22T17:58:16.539Z,24.80
2018-06-22T18:00:50.211Z,24.80
2018-06-22T18:03:23.847Z,24.90
2018-06-22T18:05:57.538Z,24.40
2018-06-22T18:08:30.947Z,24.50
2018-06-22T18:11:04.595Z,24.50
2018-06-22T18:13:32.780Z,24.70
2018-06-22T18:16:01.010Z,25.20
2018-06-22T18:18:29.201Z,25.50
2018-06-22T18:20:57.404Z,25.10
2018-06-22T18:23:25.618Z,25.50
2018-06-22T18:25:53.811Z,25.40
2018-06-22T18:28:22.114Z,25.90
2018-06-22T18:30:50.399Z,25.90
2018-06-22T18:33:18.651Z,26.40
2018-06-22T18:35:46.924Z,26.20
2018-06-22T18:38:15.119Z,26.20
2018-06-22T18:40:43.386Z,26.40
2018-06-22T18:43:16.971Z,26.50
2018-06-22T18:45:45.162Z,26.40
2018-06-22T18:48:13.463Z,26.60
2018-06-22T18:50:41.686Z,26.70
2018-06-22T18:53:15.328Z,27.00
2018-06-22T18:55:49.020Z,28.00
2018-06-22T20:08:21.065Z,27.50
2018-06-22T20:10:49.442Z,31.20
2018-06-22T20:13:17.676Z,31.20
2018-06-22T20:15:45.895Z,31.10
2018-06-22T20:18:14.886Z,31.10
2018-06-22T20:20:43.173Z,30.80
2018-06-22T20:23:11.431Z,30.70
2018-06-22T20:25:44.746Z,30.90
2018-06-22T20:28:13.575Z,30.90
2018-06-22T20:30:41.811Z,31.60
2018-06-22T20:33:10.070Z,30.90
2018-06-22T20:35:43.718Z,31.10
2018-06-22T20:38:17.376Z,31.40
2018-06-22T20:40:51.024Z,31.50
2018-06-22T20:43:24.678Z,30.90
2018-06-22T20:45:55.150Z,31.40
2018-06-22T20:48:28.770Z,31.50
2018-06-22T20:50:57.159Z,31.40
2018-06-22T20:53:25.402Z,31.70
2018-06-22T20:55:53.615Z,31.60
2018-06-22T20:58:21.920Z,31.70
2018-06-22T21:00:50.710Z,31.80
2018-06-22T21:03:18.901Z,32.50
2018-06-22T21:05:47.105Z,32.20
2018-06-22T21:08:16.083Z,32.40
2018-06-22T21:10:44.346Z,32.00
2018-06-22T21:13:12.788Z,32.00
2018-06-22T21:15:40.710Z,32.10
2018-06-22T21:18:08.946Z,32.00
2018-06-22T21:20:37.130Z,32.00
2018-06-22T21:23:05.415Z,32.10
2018-06-22T21:25:33.762Z,32.30
2018-06-22T21:28:07.422Z,32.20
2018-06-22T21:30:41.044Z,32.20
2018-06-22T21:33:14.672Z,32.40
2018-06-22T21:35:48.101Z,32.40
2018-06-22T21:38:21.753Z,32.40
2018-06-22T21:40:49.947Z,32.60
2018-06-22T21:43:18.189Z,32.90
2018-06-22T21:45:46.420Z,33.40
2018-06-22T21:48:14.654Z,32.80
2018-06-22T21:50:42.850Z,33.20
2018-06-22T21:53:11.046Z,33.10
2018-06-22T21:55:39.280Z,33.20
2018-06-22T21:58:07.498Z,33.50
2018-06-22T22:00:35.813Z,33.50
2018-06-22T22:03:03.954Z,33.30
2018-06-22T22:05:32.246Z,33.60
2018-06-22T22:08:00.589Z,33.60
2018-06-22T22:10:34.011Z,33.60
2018-06-22T22:13:02.289Z,33.50
2018-06-22T22:15:30.535Z,33.70
2018-06-22T22:17:58.816Z,33.60
2018-06-22T22:20:27.030Z,33.70
2018-06-22T22:22:55.392Z,34.10
2018-06-22T22:25:23.652Z,34.80
2018-06-22T22:27:51.898Z,34.20
2018-06-22T22:30:20.174Z,34.30
2018-06-22T22:32:48.375Z,34.40
2018-06-22T22:35:16.645Z,34.60
2018-06-22T22:37:44.954Z,34.70
2018-06-22T22:40:13.170Z,34.80
2018-06-22T22:42:41.374Z,35.10
2018-06-22T22:45:09.602Z,35.70
2018-06-22T22:47:37.815Z,35.40
2018-06-22T22:50:06.120Z,36.00
2018-06-22T22:52:34.337Z,36.10
2018-06-22T22:55:02.577Z,36.50
2018-06-22T22:57:30.746Z,36.20
2018-06-22T22:59:58.923Z,36.30
2018-06-22T23:02:27.108Z,36.70
2018-06-22T23:04:55.347Z,36.50
2018-06-22T23:07:23.530Z,36.80
2018-06-22T23:09:51.718Z,36.80
2018-06-22T23:12:19.891Z,36.80
2018-06-22T23:14:48.081Z,38.20
2018-06-22T23:17:16.590Z,38.10
2018-06-22T23:19:44.855Z,38.50
2018-06-22T23:22:13.082Z,38.70
2018-06-22T23:24:41.285Z,38.80
2018-06-22T23:27:09.518Z,39.10
2018-06-22T23:29:37.712Z,39.60
2018-06-22T23:32:05.894Z,40.00
2018-06-22T23:34:34.082Z,41.10
2018-06-22T23:37:02.259Z,41.50
2018-06-22T23:39:30.450Z,42.60
2018-06-22T23:41:58.619Z,42.20
2018-06-22T23:44:26.799Z,42.60
2018-06-22T23:46:54.970Z,42.80
2018-06-22T23:49:23.146Z,43.00
2018-06-22T23:51:51.317Z,43.30
2018-06-22T23:54:19.498Z,43.50
2018-06-22T23:56:47.779Z,43.90
2018-06-22T23:59:15.944Z,44.20
